createdAt,value
2022-09-25T00:00:50.540Z,16.70
2022-09-25T00:05:53.221Z,16.60
2022-09-25T00:10:54.911Z,16.60
2022-09-25T00:15:57.055Z,16.50
2022-09-25T00:21:02.347Z,16.00
2022-09-25T00:26:05.298Z,16.30
2022-09-25T00:31:08.349Z,16.40
2022-09-25T00:36:11.105Z,16.40
2022-09-25T00:41:13.104Z,16.30
2022-09-25T00:46:36.136Z,16.40
2022-09-25T00:51:54.987Z,16.40
2022-09-25T00:56:59.262Z,16.10
2022-09-25T01:02:01.151Z,15.90
2022-09-25T01:07:02.927Z,15.90
2022-09-25T01:12:04.859Z,15.90
2022-09-25T01:17:32.839Z,15.90
2022-09-25T01:22:41.739Z,15.80
2022-09-25T01:28:03.481Z,15.80
2022-09-25T01:33:23.734Z,15.80
2022-09-25T01:38:54.484Z,15.70
2022-09-25T01:44:08.432Z,15.70
2022-09-25T01:49:33.861Z,15.80
2022-09-25T01:54:41.758Z,16.10
2022-09-25T02:00:11.410Z,15.70
2022-09-25T02:05:36.255Z,15.60
2022-09-25T02:10:49.014Z,15.60
2022-09-25T02:15:55.208Z,15.50
2022-09-25T02:21:25.360Z,15.30
2022-09-25T02:26:30.603Z,15.30
2022-09-25T02:31:40.390Z,15.30
2022-09-25T02:36:42.667Z,15.10
2022-09-25T02:41:50.034Z,15.10
2022-09-25T02:47:00.956Z,15.30
2022-09-25T02:52:12.303Z,15.40
2022-09-25T02:57:22.913Z,15.30
2022-09-25T03:02:27.905Z,15.40
2022-09-25T03:07:29.703Z,15.20
2022-09-25T03:12:36.493Z,15.30
2022-09-25T03:17:38.901Z,15.30
2022-09-25T03:22:40.560Z,15.30
2022-09-25T03:27:42.214Z,15.30
2022-09-25T03:32:44.053Z,15.40
2022-09-25T03:37:45.703Z,15.40
2022-09-25T03:42:47.396Z,15.30
2022-09-25T03:47:49.082Z,15.30
2022-09-25T03:52:50.788Z,15.30
2022-09-25T03:57:53.118Z,15.50
2022-09-25T04:02:54.849Z,15.60
2022-09-25T04:07:56.516Z,15.60
2022-09-25T04:12:58.620Z,15.50
2022-09-25T04:18:05.786Z,15.30
2022-09-25T04:23:07.974Z,15.40
2022-09-25T04:28:09.661Z,15.50
2022-09-25T04:33:11.302Z,15.60
2022-09-25T04:38:13.022Z,15.50
2022-09-25T04:43:15.070Z,15.60
2022-09-25T04:48:16.861Z,15.80
2022-09-25T04:53:18.667Z,16.00
2022-09-25T04:58:20.935Z,16.00
2022-09-25T05:03:22.691Z,16.00
2022-09-25T05:08:24.539Z,16.00
2022-09-25T05:13:26.216Z,15.90
2022-09-25T05:18:27.890Z,15.90
2022-09-25T05:23:30.204Z,15.90
2022-09-25T05:28:32.933Z,15.90
2022-09-25T05:33:35.402Z,15.80
2022-09-25T05:38:38.827Z,15.70
2022-09-25T05:43:42.607Z,15.80
2022-09-25T05:48:44.347Z,16.00
2022-09-25T05:53:46.140Z,16.00
2022-09-25T05:58:47.892Z,15.80
2022-09-25T06:03:49.564Z,15.70
2022-09-25T06:08:54.082Z,15.80
2022-09-25T06:13:55.748Z,15.90
2022-09-25T06:18:57.411Z,15.90
2022-09-25T06:23:59.073Z,15.70
2022-09-25T06:29:03.224Z,15.80
2022-09-25T06:34:05.537Z,15.90
2022-09-25T06:39:07.183Z,16.10
2022-09-25T06:44:08.853Z,16.10
2022-09-25T06:49:12.230Z,15.90
2022-09-25T06:54:14.237Z,15.90
2022-09-25T06:59:16.374Z,16.30
2022-09-25T07:04:18.037Z,16.20
2022-09-25T07:09:19.726Z,16.20
2022-09-25T07:14:21.371Z,16.30
2022-09-25T07:19:27.687Z,16.40
2022-09-25T07:24:29.565Z,16.50
2022-09-25T07:29:31.232Z,16.30
2022-09-25T07:34:35.246Z,16.40
2022-09-25T07:39:36.932Z,16.20
2022-09-25T07:44:38.828Z,16.30
2022-09-25T07:49:41.016Z,16.20
2022-09-25T07:54:42.773Z,16.10
2022-09-25T07:59:44.475Z,16.30
2022-09-25T08:04:46.145Z,16.00
2022-09-25T08:09:47.807Z,16.00
2022-09-25T08:14:49.881Z,16.20
2022-09-25T08:19:51.600Z,16.30
2022-09-25T08:24:53.387Z,16.10
2022-09-25T08:29:55.068Z,16.30
2022-09-25T08:34:56.752Z,16.40
2022-09-25T08:39:59.830Z,16.40
2022-09-25T08:45:20.429Z,16.60
2022-09-25T08:50:25.911Z,16.40
2022-09-25T08:55:31.011Z,16.30
2022-09-25T09:00:32.711Z,16.70
2022-09-25T09:05:37.401Z,16.60
2022-09-25T09:11:22.789Z,16.70
2022-09-25T09:16:49.689Z,16.80
2022-09-25T09:22:03.260Z,16.80
2022-09-25T09:27:34.279Z,16.90
2022-09-25T09:32:51.119Z,17.50
2022-09-25T09:38:16.575Z,17.90
2022-09-25T09:43:21.311Z,18.10
2022-09-25T09:48:33.732Z,17.80
2022-09-25T09:53:46.443Z,17.80
2022-09-25T09:58:58.900Z,18.10
2022-09-25T10:04:17.800Z,17.90
2022-09-25T10:09:19.631Z,17.80
2022-09-25T10:14:26.136Z,18.10
2022-09-25T10:19:31.277Z,18.20
2022-09-25T10:24:49.810Z,18.10
2022-09-25T10:30:12.261Z,17.70
2022-09-25T10:35:16.756Z,18.30
2022-09-25T10:40:38.076Z,18.20
2022-09-25T10:45:40.331Z,18.10
2022-09-25T10:50:42.184Z,18.10
2022-09-25T10:55:43.920Z,18.30
2022-09-25T11:00:51.802Z,18.90
2022-09-25T11:06:21.963Z,18.80
2022-09-25T11:11:24.043Z,19.10
2022-09-25T11:16:53.330Z,19.40
2022-09-25T11:22:06.812Z,19.70
2022-09-25T11:27:33.076Z,19.30
2022-09-25T11:33:04.280Z,19.30
2022-09-25T11:38:25.553Z,19.70
2022-09-25T11:44:20.657Z,19.40
2022-09-25T11:49:28.155Z,19.30
2022-09-25T11:54:38.964Z,18.90
2022-09-25T11:59:46.769Z,19.00
2022-09-25T12:05:04.009Z,19.20
2022-09-25T12:10:44.154Z,18.90
2022-09-25T12:16:26.951Z,19.30
2022-09-25T12:21:44.782Z,19.20
2022-09-25T12:27:02.436Z,19.70
2022-09-25T12:32:22.833Z,20.10
2022-09-25T12:37:33.984Z,20.20
2022-09-25T12:42:41.235Z,20.30
2022-09-25T12:48:04.271Z,21.20
2022-09-25T12:53:30.753Z,22.20
2022-09-25T12:59:00.064Z,21.80
2022-09-25T13:04:43.000Z,20.40
2022-09-25T13:09:48.152Z,20.30
2022-09-25T13:15:27.855Z,19.80
2022-09-25T13:20:35.456Z,20.00
2022-09-25T13:25:53.876Z,19.90
2022-09-25T13:31:08.938Z,20.10
2022-09-25T13:36:23.982Z,20.10
2022-09-25T13:41:26.388Z,19.70
2022-09-25T13:46:28.190Z,20.00
2022-09-25T13:51:35.622Z,20.20
2022-09-25T13:56:40.500Z,20.10
2022-09-25T14:01:48.155Z,19.40
2022-09-25T14:06:54.151Z,19.20
2022-09-25T14:12:08.843Z,19.30
2022-09-25T14:17:16.188Z,19.40
2022-09-25T14:22:35.591Z,19.30
2022-09-25T14:27:37.421Z,19.40
2022-09-25T14:33:10.516Z,19.60
2022-09-25T14:38:27.276Z,20.40
2022-09-25T14:43:47.031Z,21.10
2022-09-25T14:49:13.854Z,20.90
2022-09-25T14:54:19.406Z,20.70
2022-09-25T14:59:32.045Z,20.90
2022-09-25T15:04:34.456Z,20.60
2022-09-25T15:09:37.624Z,20.30
2022-09-25T15:14:39.485Z,20.70
2022-09-25T15:19:44.921Z,20.10
2022-09-25T15:24:51.731Z,20.10
2022-09-25T15:29:54.545Z,19.40
2022-09-25T15:35:15.215Z,19.80
2022-09-25T15:40:16.921Z,19.60
2022-09-25T15:45:40.883Z,19.70
2022-09-25T15:50:44.569Z,19.50
2022-09-25T15:55:46.569Z,19.20
2022-09-25T16:01:01.240Z,19.30
2022-09-25T16:06:03.365Z,19.40
2022-09-25T16:11:26.203Z,19.50
2022-09-25T16:16:29.971Z,19.70
2022-09-25T16:21:33.680Z,19.40
2022-09-25T16:26:42.871Z,19.20
2022-09-25T16:31:45.351Z,19.30
2022-09-25T16:36:47.333Z,19.10
2022-09-25T16:41:49.605Z,19.30
2022-09-25T16:47:00.510Z,19.20
2022-09-25T16:52:06.032Z,18.80
2022-09-25T16:57:12.263Z,18.50
2022-09-25T17:02:37.706Z,18.60
2022-09-25T17:07:39.441Z,18.50
2022-09-25T17:12:41.911Z,18.30
2022-09-25T17:17:43.756Z,18.20
2022-09-25T17:22:45.430Z,18.10
2022-09-25T17:27:47.124Z,18.00
2022-09-25T17:32:49.545Z,17.80
2022-09-25T17:37:51.248Z,17.80
2022-09-25T17:42:52.926Z,17.80
2022-09-25T17:47:54.582Z,17.80
2022-09-25T17:52:56.824Z,17.80
2022-09-25T17:58:00.255Z,17.80
2022-09-25T18:03:02.522Z,17.70
2022-09-25T18:08:04.297Z,17.80
2022-09-25T18:13:07.581Z,17.70
2022-09-25T18:18:09.648Z,17.60
2022-09-25T18:23:11.487Z,17.30
2022-09-25T18:28:15.135Z,17.30
2022-09-25T18:33:18.529Z,17.10
2022-09-25T18:38:20.730Z,17.20
2022-09-25T18:43:22.929Z,17.10
2022-09-25T18:48:25.179Z,17.30
2022-09-25T18:53:29.372Z,17.10
2022-09-25T18:58:33.406Z,17.20
2022-09-25T19:03:40.646Z,17.00
2022-09-25T19:08:43.383Z,17.00
2022-09-25T19:13:46.157Z,17.00
2022-09-25T19:18:47.851Z,16.80
2022-09-25T19:23:52.976Z,16.90
2022-09-25T19:28:59.221Z,17.30
2022-09-25T19:34:07.680Z,17.50
2022-09-25T19:39:11.235Z,17.10
2022-09-25T19:44:15.444Z,17.00
2022-09-25T19:49:18.188Z,17.10
2022-09-25T19:54:21.181Z,17.00
2022-09-25T19:59:23.500Z,17.40
2022-09-25T20:04:27.367Z,17.40
2022-09-25T20:09:29.740Z,17.50
2022-09-25T20:14:32.013Z,16.90
2022-09-25T20:19:35.389Z,16.40
2022-09-25T20:24:38.950Z,16.60
2022-09-25T20:29:43.106Z,16.90
2022-09-25T20:34:47.930Z,16.50
2022-09-25T20:39:49.616Z,16.60
2022-09-25T20:44:53.207Z,16.60
2022-09-25T20:49:56.003Z,16.70
2022-09-25T20:54:58.214Z,16.90
2022-09-25T21:00:01.652Z,16.60
2022-09-25T21:05:04.137Z,16.80
2022-09-25T21:10:08.157Z,16.70
2022-09-25T21:15:09.831Z,16.90
2022-09-25T21:20:11.515Z,16.70
2022-09-25T21:25:14.322Z,16.60
2022-09-25T21:30:16.037Z,16.40
2022-09-25T21:35:17.752Z,16.60
2022-09-25T21:40:19.492Z,16.40
2022-09-25T21:45:21.419Z,16.30
2022-09-25T21:50:23.704Z,16.60
2022-09-25T21:55:25.632Z,16.70
2022-09-25T22:00:27.302Z,16.70
2022-09-25T22:05:28.971Z,16.60
2022-09-25T22:10:30.623Z,16.60
2022-09-25T22:15:32.351Z,16.90
2022-09-25T22:20:37.459Z,16.70
2022-09-25T22:25:39.144Z,16.90
2022-09-25T22:30:40.895Z,16.40
2022-09-25T22:35:42.630Z,16.30
2022-09-25T22:40:44.312Z,16.30
2022-09-25T22:45:50.517Z,16.20
2022-09-25T22:50:57.678Z,16.60
2022-09-25T22:56:12.969Z,16.40
2022-09-25T23:01:19.263Z,16.50
2022-09-25T23:06:21.118Z,16.10
2022-09-25T23:11:24.022Z,16.20
2022-09-25T23:16:26.131Z,16.30
2022-09-25T23:21:29.723Z,16.50
2022-09-25T23:26:31.799Z,16.40
2022-09-25T23:31:33.698Z,16.60
2022-09-25T23:36:35.405Z,16.10
2022-09-25T23:41:39.531Z,16.10
2022-09-25T23:46:43.153Z,16.00
2022-09-25T23:51:44.875Z,15.90
2022-09-25T23:56:46.579Z,15.70
